PWSweather.com
Personal Weather Stations
Station Observations
KNCGREEN1
Sw Greensboro, Greensboro, NC 27407

Sw GreensboroGreensboro, NC 27407

Lat: 36.04, Lon: -79.87

Elevation: 870

Station Type: Davis

http://www.weathertrek.com

Latest ConditionsUpdated 8:15:05 PM EST Tuesday, Jan 27, 2015
Currently Today's Max Today's Min Today's Average
Temperature 35.8°F2.1°C 46.1°F7.8°C 25.7°F-3.5°C 35.6°F2.0°C
Dew Point 5.9°F-14.5°C 26.2°F-3.2°C 5.8°F-14.6°C 15.0°F-9.4°C
Winds 1.0 mph NW1.6 kmh NW 11.0 mph NW17.7 kmh NW - 1.8 mph 2.9 kmh
Wind Gusts 2.0 mph3.2 kmh 17.0 mph27.4 kmh - -
Humidity 28% 69% 23% 46%
Pressure 29.88 in1011.9 mb 29.89 in1012.2 mb 29.65 in1004.1 mb -
Hour Temp Dew Point Humidity Winds Wind Gusts Pressure Precip Precip Rate Daily Precip Total
08:15 PM 35.8°F2.1°C 5.9°F-14.5°C 28% 1.0 mph NW1.6 kmh NW 2.0 mph3.2 kmh 29.88 in1011.9 mb 0.00 in0.0 mm 0.00 in/hr0.0 mm/hr 0.00 in0.0 mm
08:10 PM 36.2°F2.3°C 7.0°F-13.9°C 29% 3.0 mph NNW4.8 kmh NNW 8.0 mph12.9 kmh 29.89 in1012.2 mb 0.00 in0.0 mm 0.00 in/hr0.0 mm/hr 0.00 in0.0 mm
08:05 PM 36.2°F2.3°C 7.0°F-13.9°C 29% 3.0 mph NW4.8 kmh NW 8.0 mph12.9 kmh 29.89 in1012.2 mb 0.00 in0.0 mm 0.00 in/hr0.0 mm/hr 0.00 in0.0 mm
08:00 PM 36.6°F2.6°C 6.6°F-14.1°C 28% 1.0 mph NW1.6 kmh NW 1.0 mph1.6 kmh 29.89 in1012.2 mb 0.00 in0.0 mm 0.00 in/hr0.0 mm/hr 0.00 in0.0 mm
07:55 PM 36.6°F2.6°C 5.8°F-14.6°C 27% 5.0 mph 8.0 kmh 10.0 mph16.1 kmh 29.88 in1011.9 mb 0.00 in0.0 mm 0.00 in/hr0.0 mm/hr 0.00 in0.0 mm
07:50 PM 36.9°F2.7°C 6.1°F-14.4°C 27% 1.0 mph NW1.6 kmh NW 10.0 mph16.1 kmh 29.88 in1011.9 mb 0.00 in0.0 mm 0.00 in/hr0.0 mm/hr 0.00 in0.0 mm
07:45 PM 36.9°F2.7°C 6.1°F-14.4°C 27% 2.0 mph NW3.2 kmh NW 12.0 mph19.3 kmh 29.88 in1011.9 mb 0.00 in0.0 mm 0.00 in/hr0.0 mm/hr 0.00 in0.0 mm
07:40 PM 37.0°F2.8°C 6.1°F-14.4°C 27% 6.0 mph NW9.7 kmh NW 10.0 mph16.1 kmh 29.87 in1011.5 mb 0.00 in0.0 mm 0.00 in/hr0.0 mm/hr 0.00 in0.0 mm
07:35 PM 37.2°F2.9°C 7.1°F-13.8°C 28% 7.0 mph NW11.3 kmh NW 7.0 mph11.3 kmh 29.87 in1011.5 mb 0.00 in0.0 mm 0.00 in/hr0.0 mm/hr 0.00 in0.0 mm
07:30 PM 37.2°F2.9°C 7.1°F-13.8°C 28% 4.0 mph NW6.4 kmh NW 4.0 mph6.4 kmh 29.87 in1011.5 mb 0.00 in0.0 mm 0.00 in/hr0.0 mm/hr 0.00 in0.0 mm
07:25 PM 37.3°F2.9°C 6.4°F-14.2°C 27% 1.0 mph NW1.6 kmh NW 6.0 mph9.7 kmh 29.87 in1011.5 mb 0.00 in0.0 mm 0.00 in/hr0.0 mm/hr 0.00 in0.0 mm
07:20 PM 37.5°F3.1°C 6.6°F-14.1°C 27% 1.0 mph NW1.6 kmh NW 6.0 mph9.7 kmh 29.87 in1011.5 mb 0.00 in0.0 mm 0.00 in/hr0.0 mm/hr 0.00 in0.0 mm
07:15 PM 37.8°F3.2°C 6.8°F-14.0°C 27% 3.0 mph NNW4.8 kmh NNW 8.0 mph12.9 kmh 29.87 in1011.5 mb 0.00 in0.0 mm 0.00 in/hr0.0 mm/hr 0.00 in0.0 mm
07:10 PM 37.8°F3.2°C 6.8°F-14.0°C 27% 1.0 mph NW1.6 kmh NW 8.0 mph12.9 kmh 29.86 in1011.2 mb 0.00 in0.0 mm 0.00 in/hr0.0 mm/hr 0.00 in0.0 mm
07:05 PM 37.9°F3.3°C 7.7°F-13.5°C 28% 1.0 mph N1.6 kmh N 8.0 mph12.9 kmh 29.86 in1011.2 mb 0.00 in0.0 mm 0.00 in/hr0.0 mm/hr 0.00 in0.0 mm
07:00 PM 38.0°F3.3°C 7.8°F-13.4°C 28% 1.0 mph NW1.6 kmh NW 2.0 mph3.2 kmh 29.86 in1011.2 mb 0.00 in0.0 mm 0.00 in/hr0.0 mm/hr 0.00 in0.0 mm
06:55 PM 38.2°F3.4°C 8.0°F-13.3°C 28% 5.0 mph NNW8.0 kmh NNW 7.0 mph11.3 kmh 29.85 in1010.8 mb 0.00 in0.0 mm 0.00 in/hr0.0 mm/hr 0.00 in0.0 mm
06:50 PM 38.5°F3.6°C 7.4°F-13.7°C 27% Calm Calm 7.0 mph11.3 kmh 29.85 in1010.8 mb 0.00 in0.0 mm 0.00 in/hr0.0 mm/hr 0.00 in0.0 mm
06:45 PM 38.8°F3.8°C 7.7°F-13.5°C 27% Calm Calm 9.0 mph14.5 kmh 29.85 in1010.8 mb 0.00 in0.0 mm 0.00 in/hr0.0 mm/hr 0.00 in0.0 mm
06:40 PM 38.9°F3.8°C 7.0°F-13.9°C 26% Calm Calm 9.0 mph14.5 kmh 29.84 in1010.5 mb 0.00 in0.0 mm 0.00 in/hr0.0 mm/hr 0.00 in0.0 mm
06:30 PM 39.3°F4.1°C 7.3°F-13.7°C 26% 2.0 mph NW3.2 kmh NW 2.0 mph3.2 kmh 29.84 in1010.5 mb 0.00 in0.0 mm 0.00 in/hr0.0 mm/hr 0.00 in0.0 mm
06:25 PM 39.5°F4.2°C 7.5°F-13.6°C 26% 5.0 mph NW8.0 kmh NW 9.0 mph14.5 kmh 29.83 in1010.2 mb 0.00 in0.0 mm 0.00 in/hr0.0 mm/hr 0.00 in0.0 mm
06:20 PM 39.6°F4.2°C 7.6°F-13.6°C 26% 1.0 mph NNW1.6 kmh NNW 9.0 mph14.5 kmh 29.83 in1010.2 mb 0.00 in0.0 mm 0.00 in/hr0.0 mm/hr 0.00 in0.0 mm
06:15 PM 39.6°F4.2°C 6.7°F-14.1°C 25% 1.0 mph NNW1.6 kmh NNW 9.0 mph14.5 kmh 29.83 in1010.2 mb 0.00 in0.0 mm 0.00 in/hr0.0 mm/hr 0.00 in0.0 mm
06:10 PM 39.9°F4.4°C 7.0°F-13.9°C 25% 1.0 mph NNW1.6 kmh NNW 8.0 mph12.9 kmh 29.82 in1009.8 mb 0.00 in0.0 mm 0.00 in/hr0.0 mm/hr 0.00 in0.0 mm
06:05 PM 40.1°F4.5°C 7.1°F-13.8°C 25% Calm Calm 8.0 mph12.9 kmh 29.82 in1009.8 mb 0.00 in0.0 mm 0.00 in/hr0.0 mm/hr 0.00 in0.0 mm
06:00 PM 40.2°F4.6°C 7.2°F-13.8°C 25% 2.0 mph NW3.2 kmh NW 2.0 mph3.2 kmh 29.82 in1009.8 mb 0.00 in0.0 mm 0.00 in/hr0.0 mm/hr 0.00 in0.0 mm
05:55 PM 40.5°F4.7°C 7.5°F-13.6°C 25% 2.0 mph NNW3.2 kmh NNW 11.0 mph17.7 kmh 29.81 in1009.5 mb 0.00 in0.0 mm 0.00 in/hr0.0 mm/hr 0.00 in0.0 mm
05:50 PM 40.6°F4.8°C 7.6°F-13.6°C 25% 1.0 mph NNW1.6 kmh NNW 11.0 mph17.7 kmh 29.81 in1009.5 mb 0.00 in0.0 mm 0.00 in/hr0.0 mm/hr 0.00 in0.0 mm
05:45 PM 40.8°F4.9°C 8.6°F-13.0°C 26% 2.0 mph NW3.2 kmh NW 2.0 mph3.2 kmh 29.81 in1009.5 mb 0.00 in0.0 mm 0.00 in/hr0.0 mm/hr 0.00 in0.0 mm
05:40 PM 41.1°F5.1°C 8.0°F-13.3°C 25% Calm Calm 17.0 mph27.4 kmh 29.80 in1009.1 mb 0.00 in0.0 mm 0.00 in/hr0.0 mm/hr 0.00 in0.0 mm
05:35 PM 41.2°F5.1°C 8.1°F-13.3°C 25% 1.0 mph NW1.6 kmh NW 17.0 mph27.4 kmh 29.80 in1009.1 mb 0.00 in0.0 mm 0.00 in/hr0.0 mm/hr 0.00 in0.0 mm
05:30 PM 41.5°F5.3°C 7.4°F-13.7°C 24% 6.0 mph NW9.7 kmh NW 6.0 mph9.7 kmh 29.80 in1009.1 mb 0.00 in0.0 mm 0.00 in/hr0.0 mm/hr 0.00 in0.0 mm
05:25 PM 41.6°F5.3°C 8.4°F-13.1°C 25% 6.0 mph NNW9.7 kmh NNW 11.0 mph17.7 kmh 29.79 in1008.8 mb 0.00 in0.0 mm 0.00 in/hr0.0 mm/hr 0.00 in0.0 mm
05:20 PM 41.9°F5.5°C 7.8°F-13.4°C 24% 5.0 mph 8.0 kmh 7.0 mph11.3 kmh 29.79 in1008.8 mb 0.00 in0.0 mm 0.00 in/hr0.0 mm/hr 0.00 in0.0 mm
05:15 PM 42.1°F5.6°C 7.9°F-13.4°C 24% 2.0 mph N3.2 kmh N 2.0 mph3.2 kmh 29.79 in1008.8 mb 0.00 in0.0 mm 0.00 in/hr0.0 mm/hr 0.00 in0.0 mm
05:10 PM 42.3°F5.7°C 8.1°F-13.3°C 24% 4.0 mph NW6.4 kmh NW 11.0 mph17.7 kmh 29.78 in1008.5 mb 0.00 in0.0 mm 0.00 in/hr0.0 mm/hr 0.00 in0.0 mm
05:05 PM 42.5°F5.8°C 8.3°F-13.2°C 24% 5.0 mph SE8.0 kmh SE 11.0 mph17.7 kmh 29.78 in1008.5 mb 0.00 in0.0 mm 0.00 in/hr0.0 mm/hr 0.00 in0.0 mm
05:00 PM 42.6°F5.9°C 8.4°F-13.1°C 24% 1.0 mph W1.6 kmh W 3.0 mph4.8 kmh 29.78 in1008.5 mb 0.00 in0.0 mm 0.00 in/hr0.0 mm/hr 0.00 in0.0 mm
04:55 PM 42.9°F6.1°C 8.6°F-13.0°C 24% 3.0 mph WNW4.8 kmh WNW 7.0 mph11.3 kmh 29.78 in1008.5 mb 0.00 in0.0 mm 0.00 in/hr0.0 mm/hr 0.00 in0.0 mm
04:50 PM 43.2°F6.2°C 9.8°F-12.3°C 25% 3.0 mph NNW4.8 kmh NNW 4.0 mph6.4 kmh 29.78 in1008.5 mb 0.00 in0.0 mm 0.00 in/hr0.0 mm/hr 0.00 in0.0 mm
04:45 PM 43.2°F6.2°C 9.8°F-12.3°C 25% 1.0 mph NW1.6 kmh NW 1.0 mph1.6 kmh 29.78 in1008.5 mb 0.00 in0.0 mm 0.00 in/hr0.0 mm/hr 0.00 in0.0 mm
04:40 PM 43.3°F6.3°C 9.0°F-12.8°C 24% 2.0 mph NNW3.2 kmh NNW 10.0 mph16.1 kmh 29.77 in1008.1 mb 0.00 in0.0 mm 0.00 in/hr0.0 mm/hr 0.00 in0.0 mm
04:35 PM 43.5°F6.4°C 9.1°F-12.7°C 24% 5.0 mph NW8.0 kmh NW 9.0 mph14.5 kmh 29.77 in1008.1 mb 0.00 in0.0 mm 0.00 in/hr0.0 mm/hr 0.00 in0.0 mm
04:30 PM 43.8°F6.6°C 8.4°F-13.1°C 23% 3.0 mph NW4.8 kmh NW 3.0 mph4.8 kmh 29.77 in1008.1 mb 0.00 in0.0 mm 0.00 in/hr0.0 mm/hr 0.00 in0.0 mm
04:25 PM 43.9°F6.6°C 10.4°F-12.0°C 25% 3.0 mph NW4.8 kmh NW 12.0 mph19.3 kmh 29.77 in1008.1 mb 0.00 in0.0 mm 0.00 in/hr0.0 mm/hr 0.00 in0.0 mm
04:20 PM 44.1°F6.7°C 9.6°F-12.4°C 24% 11.0 mph NW17.7 kmh NW 12.0 mph19.3 kmh 29.77 in1008.1 mb 0.00 in0.0 mm 0.00 in/hr0.0 mm/hr 0.00 in0.0 mm
04:15 PM 44.1°F6.7°C 10.5°F-11.9°C 25% 5.0 mph NNW8.0 kmh NNW 10.0 mph16.1 kmh 29.77 in1008.1 mb 0.00 in0.0 mm 0.00 in/hr0.0 mm/hr 0.00 in0.0 mm
04:10 PM 44.1°F6.7°C 9.6°F-12.4°C 24% 5.0 mph NW8.0 kmh NW 10.0 mph16.1 kmh 29.76 in1007.8 mb 0.00 in0.0 mm 0.00 in/hr0.0 mm/hr 0.00 in0.0 mm
04:05 PM 44.2°F6.8°C 9.7°F-12.4°C 24% 5.0 mph NW8.0 kmh NW 8.0 mph12.9 kmh 29.76 in1007.8 mb 0.00 in0.0 mm 0.00 in/hr0.0 mm/hr 0.00 in0.0 mm
04:00 PM 44.3°F6.8°C 9.8°F-12.3°C 24% 2.0 mph W3.2 kmh W 4.0 mph6.4 kmh 29.76 in1007.8 mb 0.00 in0.0 mm 0.00 in/hr0.0 mm/hr 0.00 in0.0 mm
03:55 PM 44.3°F6.8°C 9.8°F-12.3°C 24% 3.0 mph NW4.8 kmh NW 8.0 mph12.9 kmh 29.75 in1007.5 mb 0.00 in0.0 mm 0.00 in/hr0.0 mm/hr 0.00 in0.0 mm
03:50 PM 44.3°F6.8°C 10.7°F-11.8°C 25% 6.0 mph NW9.7 kmh NW 8.0 mph12.9 kmh 29.75 in1007.5 mb 0.00 in0.0 mm 0.00 in/hr0.0 mm/hr 0.00 in0.0 mm
03:45 PM 44.2°F6.8°C 10.6°F-11.9°C 25% 5.0 mph WNW8.0 kmh WNW 11.0 mph17.7 kmh 29.75 in1007.5 mb 0.00 in0.0 mm 0.00 in/hr0.0 mm/hr 0.00 in0.0 mm
03:40 PM 44.5°F6.9°C 9.0°F-12.8°C 23% 5.0 mph NW8.0 kmh NW 10.0 mph16.1 kmh 29.75 in1007.5 mb 0.00 in0.0 mm 0.00 in/hr0.0 mm/hr 0.00 in0.0 mm
03:35 PM 44.9°F7.2°C 10.3°F-12.1°C 24% 6.0 mph NW9.7 kmh NW 8.0 mph12.9 kmh 29.75 in1007.5 mb 0.00 in0.0 mm 0.00 in/hr0.0 mm/hr 0.00 in0.0 mm
03:30 PM 45.4°F7.4°C 10.7°F-11.8°C 24% 3.0 mph W4.8 kmh W 3.0 mph4.8 kmh 29.75 in1007.5 mb 0.00 in0.0 mm 0.00 in/hr0.0 mm/hr 0.00 in0.0 mm
03:25 PM 45.7°F7.6°C 11.9°F-11.2°C 25% 2.0 mph NW3.2 kmh NW 8.0 mph12.9 kmh 29.75 in1007.5 mb 0.00 in0.0 mm 0.00 in/hr0.0 mm/hr 0.00 in0.0 mm
03:20 PM 45.8°F7.7°C 10.1°F-12.2°C 23% 4.0 mph NNW6.4 kmh NNW 8.0 mph12.9 kmh 29.75 in1007.5 mb 0.00 in0.0 mm 0.00 in/hr0.0 mm/hr 0.00 in0.0 mm
03:15 PM 46.0°F7.8°C 11.3°F-11.5°C 24% 3.0 mph N4.8 kmh N 3.0 mph4.8 kmh 29.75 in1007.5 mb 0.00 in0.0 mm 0.00 in/hr0.0 mm/hr 0.00 in0.0 mm
03:10 PM 46.1°F7.8°C 13.1°F-10.5°C 26% 2.0 mph N3.2 kmh N 8.0 mph12.9 kmh 29.74 in1007.1 mb 0.00 in0.0 mm 0.00 in/hr0.0 mm/hr 0.00 in0.0 mm
03:05 PM 46.0°F7.8°C 12.2°F-11.0°C 25% 6.0 mph 9.7 kmh 8.0 mph12.9 kmh 29.74 in1007.1 mb 0.00 in0.0 mm 0.00 in/hr0.0 mm/hr 0.00 in0.0 mm
03:00 PM 45.8°F7.7°C 10.1°F-12.2°C 23% 1.0 mph NNW1.6 kmh NNW 5.0 mph8.0 kmh 29.74 in1007.1 mb 0.00 in0.0 mm 0.00 in/hr0.0 mm/hr 0.00 in0.0 mm
02:55 PM 45.4°F7.4°C 12.5°F-10.8°C 26% Calm Calm 7.0 mph11.3 kmh 29.74 in1007.1 mb 0.00 in0.0 mm 0.00 in/hr0.0 mm/hr 0.00 in0.0 mm
02:50 PM 45.1°F7.3°C 11.4°F-11.4°C 25% 1.0 mph N1.6 kmh N 6.0 mph9.7 kmh 29.74 in1007.1 mb 0.00 in0.0 mm 0.00 in/hr0.0 mm/hr 0.00 in0.0 mm
02:45 PM 44.9°F7.2°C 11.2°F-11.6°C 25% 1.0 mph NNW1.6 kmh NNW 1.0 mph1.6 kmh 29.74 in1007.1 mb 0.00 in0.0 mm 0.00 in/hr0.0 mm/hr 0.00 in0.0 mm
02:40 PM 45.1°F7.3°C 11.4°F-11.4°C 25% 7.0 mph NW11.3 kmh NW 11.0 mph17.7 kmh 29.74 in1007.1 mb 0.00 in0.0 mm 0.00 in/hr0.0 mm/hr 0.00 in0.0 mm
02:35 PM 44.8°F7.1°C 11.1°F-11.6°C 25% 1.0 mph NW1.6 kmh NW 8.0 mph12.9 kmh 29.74 in1007.1 mb 0.00 in0.0 mm 0.00 in/hr0.0 mm/hr 0.00 in0.0 mm
02:30 PM 44.3°F6.8°C 10.7°F-11.8°C 25% 7.0 mph NNW11.3 kmh NNW 8.0 mph12.9 kmh 29.74 in1007.1 mb 0.00 in0.0 mm 0.00 in/hr0.0 mm/hr 0.00 in0.0 mm
02:20 PM 43.9°F6.6°C 12.1°F-11.1°C 27% 2.0 mph NNW3.2 kmh NNW 10.0 mph16.1 kmh 29.75 in1007.5 mb 0.00 in0.0 mm 0.00 in/hr0.0 mm/hr 0.00 in0.0 mm
02:15 PM 43.8°F6.6°C 12.8°F-10.7°C 28% 3.0 mph WNW4.8 kmh WNW 3.0 mph4.8 kmh 29.75 in1007.5 mb 0.00 in0.0 mm 0.00 in/hr0.0 mm/hr 0.00 in0.0 mm
02:10 PM 43.5°F6.4°C 10.9°F-11.7°C 26% 2.0 mph NW3.2 kmh NW 13.0 mph20.9 kmh 29.75 in1007.5 mb 0.00 in0.0 mm 0.00 in/hr0.0 mm/hr 0.00 in0.0 mm
02:05 PM 43.6°F6.4°C 11.8°F-11.2°C 27% Calm Calm 13.0 mph20.9 kmh 29.75 in1007.5 mb 0.00 in0.0 mm 0.00 in/hr0.0 mm/hr 0.00 in0.0 mm
02:00 PM 43.3°F6.3°C 10.7°F-11.8°C 26% 1.0 mph N1.6 kmh N 2.0 mph3.2 kmh 29.75 in1007.5 mb 0.00 in0.0 mm 0.00 in/hr0.0 mm/hr 0.00 in0.0 mm
01:55 PM 42.9°F6.1°C 11.2°F-11.6°C 27% 6.0 mph E9.7 kmh E 10.0 mph16.1 kmh 29.75 in1007.5 mb 0.00 in0.0 mm 0.00 in/hr0.0 mm/hr 0.00 in0.0 mm
01:50 PM 42.6°F5.9°C 10.1°F-12.2°C 26% 1.0 mph N1.6 kmh N 9.0 mph14.5 kmh 29.75 in1007.5 mb 0.00 in0.0 mm 0.00 in/hr0.0 mm/hr 0.00 in0.0 mm
01:45 PM 42.6°F5.9°C 11.0°F-11.7°C 27% 2.0 mph NW3.2 kmh NW 4.0 mph6.4 kmh 29.75 in1007.5 mb 0.00 in0.0 mm 0.00 in/hr0.0 mm/hr 0.00 in0.0 mm
01:40 PM 42.5°F5.8°C 11.7°F-11.3°C 28% 4.0 mph N6.4 kmh N 12.0 mph19.3 kmh 29.75 in1007.5 mb 0.00 in0.0 mm 0.00 in/hr0.0 mm/hr 0.00 in0.0 mm
01:35 PM 42.3°F5.7°C 11.5°F-11.4°C 28% 6.0 mph NW9.7 kmh NW 11.0 mph17.7 kmh 29.75 in1007.5 mb 0.00 in0.0 mm 0.00 in/hr0.0 mm/hr 0.00 in0.0 mm
01:30 PM 42.6°F5.9°C 11.8°F-11.2°C 28% 4.0 mph NNW6.4 kmh NNW 5.0 mph8.0 kmh 29.75 in1007.5 mb 0.00 in0.0 mm 0.00 in/hr0.0 mm/hr 0.00 in0.0 mm
01:25 PM 42.5°F5.8°C 11.7°F-11.3°C 28% 4.0 mph WNW6.4 kmh WNW 10.0 mph16.1 kmh 29.75 in1007.5 mb 0.00 in0.0 mm 0.00 in/hr0.0 mm/hr 0.00 in0.0 mm
01:20 PM 42.1°F5.6°C 12.2°F-11.0°C 29% 5.0 mph N8.0 kmh N 8.0 mph12.9 kmh 29.75 in1007.5 mb 0.00 in0.0 mm 0.00 in/hr0.0 mm/hr 0.00 in0.0 mm
01:15 PM 41.8°F5.4°C 11.1°F-11.6°C 28% 6.0 mph NW9.7 kmh NW 7.0 mph11.3 kmh 29.75 in1007.5 mb 0.00 in0.0 mm 0.00 in/hr0.0 mm/hr 0.00 in0.0 mm
01:10 PM 41.6°F5.3°C 10.9°F-11.7°C 28% 1.0 mph N1.6 kmh N 10.0 mph16.1 kmh 29.75 in1007.5 mb 0.00 in0.0 mm 0.00 in/hr0.0 mm/hr 0.00 in0.0 mm
01:05 PM 41.5°F5.3°C 10.8°F-11.8°C 28% 5.0 mph NW8.0 kmh NW 10.0 mph16.1 kmh 29.75 in1007.5 mb 0.00 in0.0 mm 0.00 in/hr0.0 mm/hr 0.00 in0.0 mm
01:00 PM 41.2°F5.1°C 8.9°F-12.8°C 26% 1.0 mph NW1.6 kmh NW 6.0 mph9.7 kmh 29.75 in1007.5 mb 0.00 in0.0 mm 0.00 in/hr0.0 mm/hr 0.00 in0.0 mm
12:55 PM 41.2°F5.1°C 11.4°F-11.4°C 29% 2.0 mph NW3.2 kmh NW 7.0 mph11.3 kmh 29.76 in1007.8 mb 0.00 in0.0 mm 0.00 in/hr0.0 mm/hr 0.00 in0.0 mm
12:50 PM 40.8°F4.9°C 10.2°F-12.1°C 28% 2.0 mph E3.2 kmh E 7.0 mph11.3 kmh 29.76 in1007.8 mb 0.00 in0.0 mm 0.00 in/hr0.0 mm/hr 0.00 in0.0 mm
12:45 PM 40.3°F4.6°C 9.0°F-12.8°C 27% 3.0 mph WSW4.8 kmh WSW 3.0 mph4.8 kmh 29.76 in1007.8 mb 0.00 in0.0 mm 0.00 in/hr0.0 mm/hr 0.00 in0.0 mm
12:40 PM 40.2°F4.6°C 10.5°F-11.9°C 29% 3.0 mph NNW4.8 kmh NNW 7.0 mph11.3 kmh 29.76 in1007.8 mb 0.00 in0.0 mm 0.00 in/hr0.0 mm/hr 0.00 in0.0 mm
12:35 PM 39.9°F4.4°C 11.0°F-11.7°C 30% 3.0 mph NNW4.8 kmh NNW 7.0 mph11.3 kmh 29.76 in1007.8 mb 0.00 in0.0 mm 0.00 in/hr0.0 mm/hr 0.00 in0.0 mm
12:30 PM 39.6°F4.2°C 11.5°F-11.4°C 31% 3.0 mph NNW4.8 kmh NNW 3.0 mph4.8 kmh 29.76 in1007.8 mb 0.00 in0.0 mm 0.00 in/hr0.0 mm/hr 0.00 in0.0 mm
12:25 PM 39.6°F4.2°C 9.2°F-12.7°C 28% Calm Calm 12.0 mph19.3 kmh 29.77 in1008.1 mb 0.00 in0.0 mm 0.00 in/hr0.0 mm/hr 0.00 in0.0 mm
12:20 PM 39.5°F4.2°C 12.1°F-11.1°C 32% 6.0 mph NW9.7 kmh NW 10.0 mph16.1 kmh 29.77 in1008.1 mb 0.00 in0.0 mm 0.00 in/hr0.0 mm/hr 0.00 in0.0 mm
12:15 PM 39.3°F4.1°C 11.9°F-11.2°C 32% 6.0 mph NW9.7 kmh NW 6.0 mph9.7 kmh 29.77 in1008.1 mb 0.00 in0.0 mm 0.00 in/hr0.0 mm/hr 0.00 in0.0 mm
12:10 PM 38.9°F3.8°C 10.9°F-11.7°C 31% 2.0 mph N3.2 kmh N 8.0 mph12.9 kmh 29.78 in1008.5 mb 0.00 in0.0 mm 0.00 in/hr0.0 mm/hr 0.00 in0.0 mm
12:05 PM 39.2°F4.0°C 11.1°F-11.6°C 31% 7.0 mph ENE11.3 kmh ENE 8.0 mph12.9 kmh 29.78 in1008.5 mb 0.00 in0.0 mm 0.00 in/hr0.0 mm/hr 0.00 in0.0 mm
12:00 PM 39.1°F3.9°C 11.0°F-11.7°C 31% 3.0 mph N4.8 kmh N 3.0 mph4.8 kmh 29.78 in1008.5 mb 0.00 in0.0 mm 0.00 in/hr0.0 mm/hr 0.00 in0.0 mm
11:55 AM 38.5°F3.6°C 11.2°F-11.6°C 32% 3.0 mph N4.8 kmh N 7.0 mph11.3 kmh 29.78 in1008.5 mb 0.00 in0.0 mm 0.00 in/hr0.0 mm/hr 0.00 in0.0 mm
11:50 AM 38.3°F3.5°C 11.0°F-11.7°C 32% 7.0 mph NE11.3 kmh NE 7.0 mph11.3 kmh 29.78 in1008.5 mb 0.00 in0.0 mm 0.00 in/hr0.0 mm/hr 0.00 in0.0 mm
11:45 AM 38.6°F3.7°C 9.9°F-12.3°C 30% 1.0 mph WNW1.6 kmh WNW 2.0 mph3.2 kmh 29.78 in1008.5 mb 0.00 in0.0 mm 0.00 in/hr0.0 mm/hr 0.00 in0.0 mm
11:40 AM 38.6°F3.7°C 9.9°F-12.3°C 30% 8.0 mph NW12.9 kmh NW 11.0 mph17.7 kmh 29.78 in1008.5 mb 0.00 in0.0 mm 0.00 in/hr0.0 mm/hr 0.00 in0.0 mm
11:35 AM 38.5°F3.6°C 12.6°F-10.8°C 34% 5.0 mph NW8.0 kmh NW 7.0 mph11.3 kmh 29.78 in1008.5 mb 0.00 in0.0 mm 0.00 in/hr0.0 mm/hr 0.00 in0.0 mm
11:30 AM 38.6°F3.7°C 12.0°F-11.1°C 33% 5.0 mph N8.0 kmh N 6.0 mph9.7 kmh 29.78 in1008.5 mb 0.00 in0.0 mm 0.00 in/hr0.0 mm/hr 0.00 in0.0 mm
11:25 AM 38.6°F3.7°C 11.3°F-11.5°C 32% 6.0 mph NNW9.7 kmh NNW 10.0 mph16.1 kmh 29.78 in1008.5 mb 0.00 in0.0 mm 0.00 in/hr0.0 mm/hr 0.00 in0.0 mm
11:20 AM 38.9°F3.8°C 14.9°F-9.5°C 37% 7.0 mph NW11.3 kmh NW 10.0 mph16.1 kmh 29.78 in1008.5 mb 0.00 in0.0 mm 0.00 in/hr0.0 mm/hr 0.00 in0.0 mm
11:15 AM 38.8°F3.8°C 12.2°F-11.0°C 33% 2.0 mph NNW3.2 kmh NNW 2.0 mph3.2 kmh 29.78 in1008.5 mb 0.00 in0.0 mm 0.00 in/hr0.0 mm/hr 0.00 in0.0 mm
11:10 AM 37.9°F3.3°C 14.6°F-9.7°C 38% 4.0 mph NNW6.4 kmh NNW 9.0 mph14.5 kmh 29.79 in1008.8 mb 0.00 in0.0 mm 0.00 in/hr0.0 mm/hr 0.00 in0.0 mm
11:05 AM 37.2°F2.9°C 15.1°F-9.4°C 40% 2.0 mph N3.2 kmh N 7.0 mph11.3 kmh 29.79 in1008.8 mb 0.00 in0.0 mm 0.00 in/hr0.0 mm/hr 0.00 in0.0 mm
11:00 AM 36.5°F2.5°C 15.6°F-9.1°C 42% 3.0 mph NNW4.8 kmh NNW 3.0 mph4.8 kmh 29.79 in1008.8 mb 0.00 in0.0 mm 0.00 in/hr0.0 mm/hr 0.00 in0.0 mm
10:55 AM 36.3°F2.4°C 14.9°F-9.5°C 41% 3.0 mph WNW4.8 kmh WNW 8.0 mph12.9 kmh 29.79 in1008.8 mb 0.00 in0.0 mm 0.00 in/hr0.0 mm/hr 0.00 in0.0 mm
10:50 AM 36.3°F2.4°C 15.4°F-9.2°C 42% 4.0 mph NW6.4 kmh NW 7.0 mph11.3 kmh 29.79 in1008.8 mb 0.00 in0.0 mm 0.00 in/hr0.0 mm/hr 0.00 in0.0 mm
10:45 AM 35.9°F2.2°C 15.1°F-9.4°C 42% 1.0 mph NW1.6 kmh NW 1.0 mph1.6 kmh 29.79 in1008.8 mb 0.00 in0.0 mm 0.00 in/hr0.0 mm/hr 0.00 in0.0 mm
10:40 AM 35.9°F2.2°C 15.6°F-9.1°C 43% 3.0 mph WNW4.8 kmh WNW 10.0 mph16.1 kmh 29.79 in1008.8 mb 0.00 in0.0 mm 0.00 in/hr0.0 mm/hr 0.00 in0.0 mm
10:35 AM 35.9°F2.2°C 16.1°F-8.8°C 44% 2.0 mph NW3.2 kmh NW 7.0 mph11.3 kmh 29.79 in1008.8 mb 0.00 in0.0 mm 0.00 in/hr0.0 mm/hr 0.00 in0.0 mm
10:30 AM 35.9°F2.2°C 15.6°F-9.1°C 43% 3.0 mph NW4.8 kmh NW 3.0 mph4.8 kmh 29.79 in1008.8 mb 0.00 in0.0 mm 0.00 in/hr0.0 mm/hr 0.00 in0.0 mm
10:25 AM 35.6°F2.0°C 15.3°F-9.3°C 43% 1.0 mph NW1.6 kmh NW 7.0 mph11.3 kmh 29.79 in1008.8 mb 0.00 in0.0 mm 0.00 in/hr0.0 mm/hr 0.00 in0.0 mm
10:20 AM 34.7°F1.5°C 15.6°F-9.1°C 45% Calm Calm 7.0 mph11.3 kmh 29.79 in1008.8 mb 0.00 in0.0 mm 0.00 in/hr0.0 mm/hr 0.00 in0.0 mm
10:15 AM 34.3°F1.3°C 15.2°F-9.3°C 45% 5.0 mph NNW8.0 kmh NNW 6.0 mph9.7 kmh 29.79 in1008.8 mb 0.00 in0.0 mm 0.00 in/hr0.0 mm/hr 0.00 in0.0 mm
10:10 AM 34.6°F1.4°C 15.5°F-9.2°C 45% 1.0 mph NW1.6 kmh NW 6.0 mph9.7 kmh 29.79 in1008.8 mb 0.00 in0.0 mm 0.00 in/hr0.0 mm/hr 0.00 in0.0 mm
10:05 AM 34.4°F1.3°C 16.3°F-8.7°C 47% 1.0 mph NW1.6 kmh NW 5.0 mph8.0 kmh 29.79 in1008.8 mb 0.00 in0.0 mm 0.00 in/hr0.0 mm/hr 0.00 in0.0 mm
10:00 AM 34.3°F1.3°C 16.2°F-8.8°C 47% Calm Calm 2.0 mph3.2 kmh 29.79 in1008.8 mb 0.00 in0.0 mm 0.00 in/hr0.0 mm/hr 0.00 in0.0 mm
09:55 AM 34.4°F1.3°C 15.3°F-9.3°C 45% 6.0 mph WNW9.7 kmh WNW 7.0 mph11.3 kmh 29.78 in1008.5 mb 0.00 in0.0 mm 0.00 in/hr0.0 mm/hr 0.00 in0.0 mm
09:50 AM 34.4°F1.3°C 16.3°F-8.7°C 47% Calm Calm 6.0 mph9.7 kmh 29.78 in1008.5 mb 0.00 in0.0 mm 0.00 in/hr0.0 mm/hr 0.00 in0.0 mm
09:45 AM 34.3°F1.3°C 16.7°F-8.5°C 48% 3.0 mph NW4.8 kmh NW 7.0 mph11.3 kmh 29.78 in1008.5 mb 0.00 in0.0 mm 0.00 in/hr0.0 mm/hr 0.00 in0.0 mm
09:40 AM 34.4°F1.3°C 15.8°F-9.0°C 46% 1.0 mph NE1.6 kmh NE 4.0 mph6.4 kmh 29.78 in1008.5 mb 0.00 in0.0 mm 0.00 in/hr0.0 mm/hr 0.00 in0.0 mm
09:35 AM 34.4°F1.3°C 16.8°F-8.4°C 48% 1.0 mph NE1.6 kmh NE 2.0 mph3.2 kmh 29.78 in1008.5 mb 0.00 in0.0 mm 0.00 in/hr0.0 mm/hr 0.00 in0.0 mm
09:30 AM 34.0°F1.1°C 16.9°F-8.4°C 49% 2.0 mph NE3.2 kmh NE 2.0 mph3.2 kmh 29.78 in1008.5 mb 0.00 in0.0 mm 0.00 in/hr0.0 mm/hr 0.00 in0.0 mm
09:25 AM 33.4°F0.8°C 17.2°F-8.2°C 51% 3.0 mph NE4.8 kmh NE 6.0 mph9.7 kmh 29.78 in1008.5 mb 0.00 in0.0 mm 0.00 in/hr0.0 mm/hr 0.00 in0.0 mm
09:20 AM 32.4°F0.2°C 17.2°F-8.2°C 53% Calm Calm 5.0 mph8.0 kmh 29.78 in1008.5 mb 0.00 in0.0 mm 0.00 in/hr0.0 mm/hr 0.00 in0.0 mm
09:15 AM 31.6°F-0.2°C 16.9°F-8.4°C 54% 2.0 mph NW3.2 kmh NW 2.0 mph3.2 kmh 29.78 in1008.5 mb 0.00 in0.0 mm 0.00 in/hr0.0 mm/hr 0.00 in0.0 mm
09:10 AM 31.0°F-0.6°C 16.3°F-8.7°C 54% 1.0 mph NW1.6 kmh NW 4.0 mph6.4 kmh 29.78 in1008.5 mb 0.00 in0.0 mm 0.00 in/hr0.0 mm/hr 0.00 in0.0 mm
09:05 AM 30.4°F-0.9°C 16.6°F-8.6°C 56% 1.0 mph NW1.6 kmh NW 3.0 mph4.8 kmh 29.78 in1008.5 mb 0.00 in0.0 mm 0.00 in/hr0.0 mm/hr 0.00 in0.0 mm
09:00 AM 30.1°F-1.1°C 16.7°F-8.5°C 57% 1.0 mph NW1.6 kmh NW 1.0 mph1.6 kmh 29.78 in1008.5 mb 0.00 in0.0 mm 0.00 in/hr0.0 mm/hr 0.00 in0.0 mm
08:55 AM 29.7°F-1.3°C 16.8°F-8.4°C 58% 4.0 mph NNW6.4 kmh NNW 6.0 mph9.7 kmh 29.77 in1008.1 mb 0.00 in0.0 mm 0.00 in/hr0.0 mm/hr 0.00 in0.0 mm
08:50 AM 29.4°F-1.4°C 16.1°F-8.8°C 57% Calm Calm 6.0 mph9.7 kmh 29.77 in1008.1 mb 0.00 in0.0 mm 0.00 in/hr0.0 mm/hr 0.00 in0.0 mm
08:45 AM 29.1°F-1.6°C 16.6°F-8.6°C 59% 2.0 mph NW3.2 kmh NW 2.0 mph3.2 kmh 29.77 in1008.1 mb 0.00 in0.0 mm 0.00 in/hr0.0 mm/hr 0.00 in0.0 mm
08:40 AM 28.7°F-1.8°C 16.6°F-8.6°C 60% 3.0 mph NW4.8 kmh NW 5.0 mph8.0 kmh 29.77 in1008.1 mb 0.00 in0.0 mm 0.00 in/hr0.0 mm/hr 0.00 in0.0 mm
08:35 AM 28.2°F-2.1°C 16.1°F-8.8°C 60% Calm Calm 2.0 mph3.2 kmh 29.77 in1008.1 mb 0.00 in0.0 mm 0.00 in/hr0.0 mm/hr 0.00 in0.0 mm
08:30 AM 27.9°F-2.3°C 16.6°F-8.6°C 62% Calm Calm -- 29.77 in1008.1 mb 0.00 in0.0 mm 0.00 in/hr0.0 mm/hr 0.00 in0.0 mm
08:25 AM 27.6°F-2.4°C 16.3°F-8.7°C 62% Calm Calm 2.0 mph3.2 kmh 29.77 in1008.1 mb 0.00 in0.0 mm 0.00 in/hr0.0 mm/hr 0.00 in0.0 mm
08:20 AM 27.5°F-2.5°C 16.6°F-8.6°C 63% Calm Calm 2.0 mph3.2 kmh 29.77 in1008.1 mb 0.00 in0.0 mm 0.00 in/hr0.0 mm/hr 0.00 in0.0 mm
08:15 AM 27.2°F-2.7°C 16.7°F-8.5°C 64% Calm Calm -- 29.77 in1008.1 mb 0.00 in0.0 mm 0.00 in/hr0.0 mm/hr 0.00 in0.0 mm
08:10 AM 26.7°F-2.9°C 16.5°F-8.6°C 65% Calm Calm 2.0 mph3.2 kmh 29.77 in1008.1 mb 0.00 in0.0 mm 0.00 in/hr0.0 mm/hr 0.00 in0.0 mm
08:05 AM 26.6°F-3.0°C 16.1°F-8.8°C 64% Calm Calm 2.0 mph3.2 kmh 29.77 in1008.1 mb 0.00 in0.0 mm 0.00 in/hr0.0 mm/hr 0.00 in0.0 mm
08:00 AM 26.3°F-3.2°C 16.5°F-8.6°C 66% 1.0 mph NW1.6 kmh NW 1.0 mph1.6 kmh 29.77 in1008.1 mb 0.00 in0.0 mm 0.00 in/hr0.0 mm/hr 0.00 in0.0 mm
07:55 AM 26.3°F-3.2°C 16.9°F-8.4°C 67% 1.0 mph NW1.6 kmh NW 1.0 mph1.6 kmh 29.76 in1007.8 mb 0.00 in0.0 mm 0.00 in/hr0.0 mm/hr 0.00 in0.0 mm
07:50 AM 26.0°F-3.3°C 16.6°F-8.6°C 67% Calm Calm 1.0 mph1.6 kmh 29.76 in1007.8 mb 0.00 in0.0 mm 0.00 in/hr0.0 mm/hr 0.00 in0.0 mm
07:45 AM 26.0°F-3.3°C 16.6°F-8.6°C 67% Calm Calm -- 29.76 in1007.8 mb 0.00 in0.0 mm 0.00 in/hr0.0 mm/hr 0.00 in0.0 mm
07:40 AM 25.7°F-3.5°C 16.6°F-8.6°C 68% Calm Calm 1.0 mph1.6 kmh 29.76 in1007.8 mb 0.00 in0.0 mm 0.00 in/hr0.0 mm/hr 0.00 in0.0 mm
07:35 AM 25.7°F-3.5°C 16.6°F-8.6°C 68% Calm Calm -- 29.76 in1007.8 mb 0.00 in0.0 mm 0.00 in/hr0.0 mm/hr 0.00 in0.0 mm
07:30 AM 25.7°F-3.5°C 16.6°F-8.6°C 68% Calm Calm -- 29.76 in1007.8 mb 0.00 in0.0 mm 0.00 in/hr0.0 mm/hr 0.00 in0.0 mm
07:25 AM 25.8°F-3.4°C 16.7°F-8.5°C 68% Calm Calm -- 29.75 in1007.5 mb 0.00 in0.0 mm 0.00 in/hr0.0 mm/hr 0.00 in0.0 mm
07:20 AM 26.0°F-3.3°C 16.6°F-8.6°C 67% Calm Calm -- 29.75 in1007.5 mb 0.00 in0.0 mm 0.00 in/hr0.0 mm/hr 0.00 in0.0 mm
07:15 AM 26.0°F-3.3°C 16.9°F-8.4°C 68% Calm Calm -- 29.75 in1007.5 mb 0.00 in0.0 mm 0.00 in/hr0.0 mm/hr 0.00 in0.0 mm
07:10 AM 26.0°F-3.3°C 16.9°F-8.4°C 68% Calm Calm 1.0 mph1.6 kmh 29.75 in1007.5 mb 0.00 in0.0 mm 0.00 in/hr0.0 mm/hr 0.00 in0.0 mm
07:05 AM 26.0°F-3.3°C 16.9°F-8.4°C 68% Calm Calm -- 29.75 in1007.5 mb 0.00 in0.0 mm 0.00 in/hr0.0 mm/hr 0.00 in0.0 mm
07:00 AM 26.1°F-3.3°C 17.0°F-8.3°C 68% Calm Calm -- 29.75 in1007.5 mb 0.00 in0.0 mm 0.00 in/hr0.0 mm/hr 0.00 in0.0 mm
06:55 AM 26.3°F-3.2°C 17.2°F-8.2°C 68% Calm Calm -- 29.74 in1007.1 mb 0.00 in0.0 mm 0.00 in/hr0.0 mm/hr 0.00 in0.0 mm
06:50 AM 26.4°F-3.1°C 16.9°F-8.4°C 67% Calm Calm -- 29.74 in1007.1 mb 0.00 in0.0 mm 0.00 in/hr0.0 mm/hr 0.00 in0.0 mm
06:45 AM 26.6°F-3.0°C 16.8°F-8.4°C 66% Calm Calm -- 29.74 in1007.1 mb 0.00 in0.0 mm 0.00 in/hr0.0 mm/hr 0.00 in0.0 mm
06:40 AM 26.7°F-2.9°C 16.9°F-8.4°C 66% Calm Calm -- 29.73 in1006.8 mb 0.00 in0.0 mm 0.00 in/hr0.0 mm/hr 0.00 in0.0 mm
06:35 AM 27.0°F-2.8°C 17.2°F-8.2°C 66% Calm Calm -- 29.73 in1006.8 mb 0.00 in0.0 mm 0.00 in/hr0.0 mm/hr 0.00 in0.0 mm
06:30 AM 27.0°F-2.8°C 16.8°F-8.4°C 65% Calm Calm -- 29.73 in1006.8 mb 0.00 in0.0 mm 0.00 in/hr0.0 mm/hr 0.00 in0.0 mm
06:25 AM 27.2°F-2.7°C 17.0°F-8.3°C 65% Calm Calm 1.0 mph1.6 kmh 29.73 in1006.8 mb 0.00 in0.0 mm 0.00 in/hr0.0 mm/hr 0.00 in0.0 mm
06:20 AM 27.2°F-2.7°C 17.0°F-8.3°C 65% Calm Calm 1.0 mph1.6 kmh 29.73 in1006.8 mb 0.00 in0.0 mm 0.00 in/hr0.0 mm/hr 0.00 in0.0 mm
06:15 AM 27.2°F-2.7°C 17.0°F-8.3°C 65% Calm Calm 1.0 mph1.6 kmh 29.73 in1006.8 mb 0.00 in0.0 mm 0.00 in/hr0.0 mm/hr 0.00 in0.0 mm
06:10 AM 27.0°F-2.8°C 16.8°F-8.4°C 65% Calm Calm 1.0 mph1.6 kmh 29.72 in1006.4 mb 0.00 in0.0 mm 0.00 in/hr0.0 mm/hr 0.00 in0.0 mm
06:05 AM 27.0°F-2.8°C 17.2°F-8.2°C 66% Calm Calm 1.0 mph1.6 kmh 29.72 in1006.4 mb 0.00 in0.0 mm 0.00 in/hr0.0 mm/hr 0.00 in0.0 mm
06:00 AM 27.2°F-2.7°C 17.4°F-8.1°C 66% Calm Calm -- 29.72 in1006.4 mb 0.00 in0.0 mm 0.00 in/hr0.0 mm/hr 0.00 in0.0 mm
05:55 AM 27.3°F-2.6°C 17.5°F-8.1°C 66% Calm Calm 1.0 mph1.6 kmh 29.72 in1006.4 mb 0.00 in0.0 mm 0.00 in/hr0.0 mm/hr 0.00 in0.0 mm
05:50 AM 27.5°F-2.5°C 17.7°F-7.9°C 66% Calm Calm 1.0 mph1.6 kmh 29.72 in1006.4 mb 0.00 in0.0 mm 0.00 in/hr0.0 mm/hr 0.00 in0.0 mm
05:45 AM 27.6°F-2.4°C 17.4°F-8.1°C 65% 1.0 mph NNW1.6 kmh NNW 1.0 mph1.6 kmh 29.72 in1006.4 mb 0.00 in0.0 mm 0.00 in/hr0.0 mm/hr 0.00 in0.0 mm
05:40 AM 27.8°F-2.3°C 17.6°F-8.0°C 65% 1.0 mph NW1.6 kmh NW 1.0 mph1.6 kmh 29.71 in1006.1 mb 0.00 in0.0 mm 0.00 in/hr0.0 mm/hr 0.00 in0.0 mm
05:35 AM 27.9°F-2.3°C 17.7°F-7.9°C 65% Calm Calm -- 29.71 in1006.1 mb 0.00 in0.0 mm 0.00 in/hr0.0 mm/hr 0.00 in0.0 mm
05:30 AM 27.9°F-2.3°C 17.7°F-7.9°C 65% Calm Calm -- 29.71 in1006.1 mb 0.00 in0.0 mm 0.00 in/hr0.0 mm/hr 0.00 in0.0 mm
05:25 AM 28.1°F-2.2°C 17.9°F-7.8°C 65% Calm Calm -- 29.71 in1006.1 mb 0.00 in0.0 mm 0.00 in/hr0.0 mm/hr 0.00 in0.0 mm
05:20 AM 28.4°F-2.0°C 18.2°F-7.7°C 65% Calm Calm -- 29.71 in1006.1 mb 0.00 in0.0 mm 0.00 in/hr0.0 mm/hr 0.00 in0.0 mm
05:15 AM 28.7°F-1.8°C 18.1°F-7.7°C 64% Calm Calm -- 29.71 in1006.1 mb 0.00 in0.0 mm 0.00 in/hr0.0 mm/hr 0.00 in0.0 mm
05:10 AM 28.7°F-1.8°C 18.1°F-7.7°C 64% Calm Calm 3.0 mph4.8 kmh 29.70 in1005.8 mb 0.00 in0.0 mm 0.00 in/hr0.0 mm/hr 0.00 in0.0 mm
05:05 AM 28.8°F-1.8°C 18.2°F-7.7°C 64% Calm Calm -- 29.70 in1005.8 mb 0.00 in0.0 mm 0.00 in/hr0.0 mm/hr 0.00 in0.0 mm
05:00 AM 29.0°F-1.7°C 18.0°F-7.8°C 63% Calm Calm -- 29.70 in1005.8 mb 0.00 in0.0 mm 0.00 in/hr0.0 mm/hr 0.00 in0.0 mm
04:55 AM 29.1°F-1.6°C 18.1°F-7.7°C 63% 1.0 mph NW1.6 kmh NW 3.0 mph4.8 kmh 29.70 in1005.8 mb 0.00 in0.0 mm 0.00 in/hr0.0 mm/hr 0.00 in0.0 mm
04:50 AM 29.3°F-1.5°C 18.3°F-7.6°C 63% Calm Calm 1.0 mph1.6 kmh 29.70 in1005.8 mb 0.00 in0.0 mm 0.00 in/hr0.0 mm/hr 0.00 in0.0 mm
04:45 AM 29.4°F-1.4°C 18.7°F-7.4°C 64% Calm Calm -- 29.70 in1005.8 mb 0.00 in0.0 mm 0.00 in/hr0.0 mm/hr 0.00 in0.0 mm
04:40 AM 29.5°F-1.4°C 18.8°F-7.3°C 64% 1.0 mph NW1.6 kmh NW 6.0 mph9.7 kmh 29.70 in1005.8 mb 0.00 in0.0 mm 0.00 in/hr0.0 mm/hr 0.00 in0.0 mm
04:35 AM 29.5°F-1.4°C 18.8°F-7.3°C 64% Calm Calm 6.0 mph9.7 kmh 29.70 in1005.8 mb 0.00 in0.0 mm 0.00 in/hr0.0 mm/hr 0.00 in0.0 mm
04:30 AM 29.7°F-1.3°C 19.4°F-7.0°C 65% Calm Calm -- 29.70 in1005.8 mb 0.00 in0.0 mm 0.00 in/hr0.0 mm/hr 0.00 in0.0 mm
04:25 AM 29.8°F-1.2°C 19.5°F-6.9°C 65% Calm Calm 4.0 mph6.4 kmh 29.69 in1005.4 mb 0.00 in0.0 mm 0.00 in/hr0.0 mm/hr 0.00 in0.0 mm
04:20 AM 30.0°F-1.1°C 19.7°F-6.8°C 65% 1.0 mph NNW1.6 kmh NNW 4.0 mph6.4 kmh 29.69 in1005.4 mb 0.00 in0.0 mm 0.00 in/hr0.0 mm/hr 0.00 in0.0 mm
04:15 AM 30.1°F-1.1°C 19.8°F-6.8°C 65% Calm Calm -- 29.69 in1005.4 mb 0.00 in0.0 mm 0.00 in/hr0.0 mm/hr 0.00 in0.0 mm
04:10 AM 30.3°F-0.9°C 20.3°F-6.5°C 66% Calm Calm 5.0 mph8.0 kmh 29.69 in1005.4 mb 0.00 in0.0 mm 0.00 in/hr0.0 mm/hr 0.00 in0.0 mm
04:05 AM 30.3°F-0.9°C 20.0°F-6.7°C 65% 2.0 mph NNW3.2 kmh NNW 5.0 mph8.0 kmh 29.69 in1005.4 mb 0.00 in0.0 mm 0.00 in/hr0.0 mm/hr 0.00 in0.0 mm
04:00 AM 30.6°F-0.8°C 20.6°F-6.3°C 66% 2.0 mph NW3.2 kmh NW 5.0 mph8.0 kmh 29.69 in1005.4 mb 0.00 in0.0 mm 0.00 in/hr0.0 mm/hr 0.00 in0.0 mm
03:55 AM 30.6°F-0.8°C 20.6°F-6.3°C 66% Calm Calm 3.0 mph4.8 kmh 29.68 in1005.1 mb 0.00 in0.0 mm 0.00 in/hr0.0 mm/hr 0.00 in0.0 mm
03:50 AM 30.7°F-0.7°C 20.7°F-6.3°C 66% 1.0 mph NW1.6 kmh NW 3.0 mph4.8 kmh 29.68 in1005.1 mb 0.00 in0.0 mm 0.00 in/hr0.0 mm/hr 0.00 in0.0 mm
03:45 AM 30.9°F-0.6°C 20.9°F-6.2°C 66% Calm Calm -- 29.68 in1005.1 mb 0.00 in0.0 mm 0.00 in/hr0.0 mm/hr 0.00 in0.0 mm
03:40 AM 31.0°F-0.6°C 21.0°F-6.1°C 66% Calm Calm 3.0 mph4.8 kmh 29.68 in1005.1 mb 0.00 in0.0 mm 0.00 in/hr0.0 mm/hr 0.00 in0.0 mm
03:35 AM 31.2°F-0.4°C 21.2°F-6.0°C 66% 1.0 mph NW1.6 kmh NW 3.0 mph4.8 kmh 29.68 in1005.1 mb 0.00 in0.0 mm 0.00 in/hr0.0 mm/hr 0.00 in0.0 mm
03:30 AM 31.3°F-0.4°C 21.3°F-5.9°C 66% Calm Calm -- 29.68 in1005.1 mb 0.00 in0.0 mm 0.00 in/hr0.0 mm/hr 0.00 in0.0 mm
03:25 AM 31.3°F-0.4°C 21.3°F-5.9°C 66% Calm Calm 6.0 mph9.7 kmh 29.68 in1005.1 mb 0.00 in0.0 mm 0.00 in/hr0.0 mm/hr 0.00 in0.0 mm
03:20 AM 31.5°F-0.3°C 21.8°F-5.7°C 67% 1.0 mph NNW1.6 kmh NNW 6.0 mph9.7 kmh 29.68 in1005.1 mb 0.00 in0.0 mm 0.00 in/hr0.0 mm/hr 0.00 in0.0 mm
03:15 AM 31.5°F-0.3°C 21.8°F-5.7°C 67% Calm Calm -- 29.68 in1005.1 mb 0.00 in0.0 mm 0.00 in/hr0.0 mm/hr 0.00 in0.0 mm
03:10 AM 31.6°F-0.2°C 21.9°F-5.6°C 67% 1.0 mph NNW1.6 kmh NNW 6.0 mph9.7 kmh 29.69 in1005.4 mb 0.00 in0.0 mm 0.00 in/hr0.0 mm/hr 0.00 in0.0 mm
03:05 AM 31.6°F-0.2°C 22.3°F-5.4°C 68% 3.0 mph NNW4.8 kmh NNW 5.0 mph8.0 kmh 29.69 in1005.4 mb 0.00 in0.0 mm 0.00 in/hr0.0 mm/hr 0.00 in0.0 mm
03:00 AM 31.8°F-0.1°C 22.5°F-5.3°C 68% Calm Calm 2.0 mph3.2 kmh 29.69 in1005.4 mb 0.00 in0.0 mm 0.00 in/hr0.0 mm/hr 0.00 in0.0 mm
02:55 AM 31.9°F-0.1°C 22.9°F-5.1°C 69% Calm Calm 2.0 mph3.2 kmh 29.68 in1005.1 mb 0.00 in0.0 mm 0.00 in/hr0.0 mm/hr 0.00 in0.0 mm
02:50 AM 31.9°F-0.1°C 22.9°F-5.1°C 69% 1.0 mph N1.6 kmh N 2.0 mph3.2 kmh 29.68 in1005.1 mb 0.00 in0.0 mm 0.00 in/hr0.0 mm/hr 0.00 in0.0 mm
02:45 AM 32.2°F0.1°C 23.2°F-4.9°C 69% Calm Calm -- 29.68 in1005.1 mb 0.00 in0.0 mm 0.00 in/hr0.0 mm/hr 0.00 in0.0 mm
02:40 AM 32.2°F0.1°C 22.8°F-5.1°C 68% Calm Calm 2.0 mph3.2 kmh 29.67 in1004.7 mb 0.00 in0.0 mm 0.00 in/hr0.0 mm/hr 0.00 in0.0 mm
02:35 AM 32.4°F0.2°C 23.0°F-5.0°C 68% Calm Calm 2.0 mph3.2 kmh 29.67 in1004.7 mb 0.00 in0.0 mm 0.00 in/hr0.0 mm/hr 0.00 in0.0 mm
02:30 AM 32.4°F0.2°C 23.4°F-4.8°C 69% Calm Calm 1.0 mph1.6 kmh 29.67 in1004.7 mb 0.00 in0.0 mm 0.00 in/hr0.0 mm/hr 0.00 in0.0 mm
02:25 AM 32.5°F0.3°C 23.5°F-4.7°C 69% Calm Calm 2.0 mph3.2 kmh 29.67 in1004.7 mb 0.00 in0.0 mm 0.00 in/hr0.0 mm/hr 0.00 in0.0 mm
02:20 AM 32.7°F0.4°C 23.7°F-4.6°C 69% Calm Calm 2.0 mph3.2 kmh 29.67 in1004.7 mb 0.00 in0.0 mm 0.00 in/hr0.0 mm/hr 0.00 in0.0 mm
02:15 AM 32.8°F0.4°C 23.4°F-4.8°C 68% Calm Calm 3.0 mph4.8 kmh 29.67 in1004.7 mb 0.00 in0.0 mm 0.00 in/hr0.0 mm/hr 0.00 in0.0 mm
02:10 AM 33.1°F0.6°C 23.7°F-4.6°C 68% Calm Calm 3.0 mph4.8 kmh 29.66 in1004.4 mb 0.00 in0.0 mm 0.00 in/hr0.0 mm/hr 0.00 in0.0 mm
02:05 AM 32.9°F0.5°C 23.5°F-4.7°C 68% 2.0 mph N3.2 kmh N 2.0 mph3.2 kmh 29.66 in1004.4 mb 0.00 in0.0 mm 0.00 in/hr0.0 mm/hr 0.00 in0.0 mm
02:00 AM 33.1°F0.6°C 23.7°F-4.6°C 68% 2.0 mph N3.2 kmh N 2.0 mph3.2 kmh 29.66 in1004.4 mb 0.00 in0.0 mm 0.00 in/hr0.0 mm/hr 0.00 in0.0 mm
01:55 AM 33.4°F0.8°C 24.0°F-4.4°C 68% Calm Calm 1.0 mph1.6 kmh 29.65 in1004.1 mb 0.00 in0.0 mm 0.00 in/hr0.0 mm/hr 0.00 in0.0 mm
01:50 AM 33.5°F0.8°C 23.7°F-4.6°C 67% 1.0 mph N1.6 kmh N 1.0 mph1.6 kmh 29.65 in1004.1 mb 0.00 in0.0 mm 0.00 in/hr0.0 mm/hr 0.00 in0.0 mm
01:45 AM 33.7°F0.9°C 23.9°F-4.5°C 67% Calm Calm 7.0 mph11.3 kmh 29.65 in1004.1 mb 0.00 in0.0 mm 0.00 in/hr0.0 mm/hr 0.00 in0.0 mm
01:40 AM 34.0°F1.1°C 23.9°F-4.5°C 66% Calm Calm 7.0 mph11.3 kmh 29.66 in1004.4 mb 0.00 in0.0 mm 0.00 in/hr0.0 mm/hr 0.00 in0.0 mm
01:35 AM 34.3°F1.3°C 24.1°F-4.4°C 66% Calm Calm 1.0 mph1.6 kmh 29.66 in1004.4 mb 0.00 in0.0 mm 0.00 in/hr0.0 mm/hr 0.00 in0.0 mm
01:30 AM 34.6°F1.4°C 24.1°F-4.4°C 65% Calm Calm -- 29.66 in1004.4 mb 0.00 in0.0 mm 0.00 in/hr0.0 mm/hr 0.00 in0.0 mm
01:25 AM 34.7°F1.5°C 24.2°F-4.3°C 65% 1.0 mph N1.6 kmh N 7.0 mph11.3 kmh 29.66 in1004.4 mb 0.00 in0.0 mm 0.00 in/hr0.0 mm/hr 0.00 in0.0 mm
01:20 AM 34.9°F1.6°C 24.3°F-4.3°C 65% Calm Calm 7.0 mph11.3 kmh 29.66 in1004.4 mb 0.00 in0.0 mm 0.00 in/hr0.0 mm/hr 0.00 in0.0 mm
01:15 AM 35.2°F1.8°C 24.3°F-4.3°C 64% 3.0 mph NNW4.8 kmh NNW 6.0 mph9.7 kmh 29.66 in1004.4 mb 0.00 in0.0 mm 0.00 in/hr0.0 mm/hr 0.00 in0.0 mm
01:10 AM 35.2°F1.8°C 24.3°F-4.3°C 64% 1.0 mph NNW1.6 kmh NNW 6.0 mph9.7 kmh 29.65 in1004.1 mb 0.00 in0.0 mm 0.00 in/hr0.0 mm/hr 0.00 in0.0 mm
01:05 AM 35.3°F1.8°C 24.4°F-4.2°C 64% 2.0 mph NNW3.2 kmh NNW 5.0 mph8.0 kmh 29.65 in1004.1 mb 0.00 in0.0 mm 0.00 in/hr0.0 mm/hr 0.00 in0.0 mm
01:00 AM 35.6°F2.0°C 24.6°F-4.1°C 64% Calm Calm -- 29.65 in1004.1 mb 0.00 in0.0 mm 0.00 in/hr0.0 mm/hr 0.00 in0.0 mm
12:55 AM 35.9°F2.2°C 24.6°F-4.1°C 63% Calm Calm 5.0 mph8.0 kmh 29.65 in1004.1 mb 0.00 in0.0 mm 0.00 in/hr0.0 mm/hr 0.00 in0.0 mm
12:50 AM 36.2°F2.3°C 24.8°F-4.0°C 63% Calm Calm 5.0 mph8.0 kmh 29.65 in1004.1 mb 0.00 in0.0 mm 0.00 in/hr0.0 mm/hr 0.00 in0.0 mm
12:45 AM 36.2°F2.3°C 24.8°F-4.0°C 63% Calm Calm 6.0 mph9.7 kmh 29.65 in1004.1 mb 0.00 in0.0 mm 0.00 in/hr0.0 mm/hr 0.00 in0.0 mm
12:40 AM 36.3°F2.4°C 24.5°F-4.2°C 62% 3.0 mph NW4.8 kmh NW 6.0 mph9.7 kmh 29.65 in1004.1 mb 0.00 in0.0 mm 0.00 in/hr0.0 mm/hr 0.00 in0.0 mm
12:35 AM 36.5°F2.5°C 24.7°F-4.1°C 62% Calm Calm 4.0 mph6.4 kmh 29.65 in1004.1 mb 0.00 in0.0 mm 0.00 in/hr0.0 mm/hr 0.00 in0.0 mm
12:30 AM 36.6°F2.6°C 24.4°F-4.2°C 61% Calm Calm 1.0 mph1.6 kmh 29.65 in1004.1 mb 0.00 in0.0 mm 0.00 in/hr0.0 mm/hr 0.00 in0.0 mm
12:25 AM 36.8°F2.7°C 24.6°F-4.1°C 61% 2.0 mph NW3.2 kmh NW 8.0 mph12.9 kmh 29.65 in1004.1 mb 0.00 in0.0 mm 0.00 in/hr0.0 mm/hr 0.00 in0.0 mm
12:20 AM 36.9°F2.7°C 24.7°F-4.1°C 61% Calm Calm 7.0 mph11.3 kmh 29.65 in1004.1 mb 0.00 in0.0 mm 0.00 in/hr0.0 mm/hr 0.00 in0.0 mm
12:15 AM 36.9°F2.7°C 25.1°F-3.8°C 62% 3.0 mph NNW4.8 kmh NNW 3.0 mph4.8 kmh 29.65 in1004.1 mb 0.00 in0.0 mm 0.00 in/hr0.0 mm/hr 0.00 in0.0 mm
12:10 AM 37.0°F2.8°C 25.2°F-3.8°C 62% 1.0 mph NNW1.6 kmh NNW 12.0 mph19.3 kmh 29.65 in1004.1 mb 0.00 in0.0 mm 0.00 in/hr0.0 mm/hr 0.00 in0.0 mm
12:05 AM 37.2°F2.9°C 26.2°F-3.2°C 64% 3.0 mph NW4.8 kmh NW 4.0 mph6.4 kmh 29.65 in1004.1 mb 0.00 in0.0 mm 0.00 in/hr0.0 mm/hr 0.00 in0.0 mm
12:00 AM 37.3°F2.9°C 25.9°F-3.4°C 63% Calm Calm -- 29.65 in1004.1 mb 0.00 in0.0 mm 0.00 in/hr0.0 mm/hr 0.00 in0.0 mm